Time;durP1;ratioP1;P1;durP2;ratioP2;P2;SDS_P1;SDS_P2;PMS_P1;PMS_P2;Temp;Humidity;BMP_temperature;BMP_pressure;BME280_temperature;BME280_humidity;BME280_pressure;Samples;Min_cycle;Max_cycle;Signal;HPM_P1;HPM_P2
2023/09/16 00:01:21;;;;;;;4.72;3.10;;;12.50;99.90;;;;;;6113885;23;20024;-70
2023/09/16 00:03:47;;;;;;;3.15;2.75;;;12.50;99.90;;;;;;6085532;23;20018;-70
2023/09/16 00:06:13;;;;;;;3.67;2.47;;;12.40;99.90;;;;;;6084812;23;20072;-70
2023/09/16 00:08:39;;;;;;;5.03;3.05;;;12.40;99.90;;;;;;6084458;23;20018;-70
2023/09/16 00:11:09;;;;;;;2.83;2.60;;;12.40;99.90;;;;;;6061561;23;20022;-70
2023/09/16 00:13:35;;;;;;;4.90;3.10;;;12.40;99.90;;;;;;6112533;23;20018;-70
2023/09/16 00:16:01;;;;;;;4.00;2.75;;;12.40;99.90;;;;;;6085197;23;20438;-70
2023/09/16 00:18:26;;;;;;;6.70;4.10;;;12.30;99.90;;;;;;6061992;23;20022;-71
2023/09/16 00:20:52;;;;;;;5.65;4.63;;;12.20;99.90;;;;;;6085887;23;20310;-70
2023/09/16 00:23:20;;;;;;;4.75;3.28;;;12.20;99.90;;;;;;6087115;23;20042;-70
2023/09/16 00:25:46;;;;;;;3.80;2.30;;;12.20;99.90;;;;;;6110487;23;20076;-70
2023/09/16 00:28:12;;;;;;;2.55;1.95;;;12.20;99.90;;;;;;6109325;23;20010;-70
2023/09/16 00:30:48;;;;;;;2.40;2.20;;;12.30;99.90;;;;;;6086846;23;20018;-70
2023/09/16 00:33:13;;;;;;;4.82;3.40;;;12.20;99.90;;;;;;6086313;23;20056;-70
2023/09/16 00:35:39;;;;;;;4.95;3.40;;;12.20;99.90;;;;;;6082211;23;20022;-70
2023/09/16 00:38:05;;;;;;;5.80;3.55;;;12.20;99.90;;;;;;6109154;23;20083;-70
2023/09/16 00:40:31;;;;;;;4.43;3.17;;;12.10;99.90;;;;;;6083592;23;20345;-70
2023/09/16 00:42:56;;;;;;;3.92;3.13;;;12.10;99.90;;;;;;6109120;23;20106;-70
2023/09/16 00:45:22;;;;;;;3.47;2.95;;;12.10;99.90;;;;;;6086084;23;20053;-71
2023/09/16 00:47:48;;;;;;;7.80;5.10;;;12.10;99.90;;;;;;6086924;23;20476;-70
2023/09/16 00:50:14;;;;;;;4.40;3.85;;;12.10;99.90;;;;;;6111800;23;20014;-71
2023/09/16 00:53:05;;;;;;;4.55;3.90;;;12.20;99.90;;;;;;6085365;23;20052;-70
2023/09/16 00:55:31;;;;;;;4.20;3.80;;;12.10;99.90;;;;;;6111822;23;20329;-71
2023/09/16 00:57:58;;;;;;;5.88;4.53;;;12.10;99.90;;;;;;6111848;23;20172;-70
2023/09/16 01:00:26;;;;;;;4.22;3.92;;;12.10;99.90;;;;;;6112088;23;20116;-70
2023/09/16 01:02:53;;;;;;;5.30;3.60;;;12.10;99.90;;;;;;6110269;23;20014;-70
2023/09/16 01:05:19;;;;;;;4.57;3.20;;;12.10;99.90;;;;;;6084636;23;20019;-70
2023/09/16 01:07:50;;;;;;;4.25;3.95;;;12.10;99.90;;;;;;6110476;23;20017;-70
2023/09/16 01:10:20;;;;;;;4.13;3.15;;;12.10;99.90;;;;;;6112958;23;20049;-70
2023/09/16 01:12:47;;;;;;;5.28;4.20;;;12.10;99.90;;;;;;6085959;23;20017;-70
2023/09/16 01:15:15;;;;;;;5.95;3.33;;;12.20;99.90;;;;;;6086153;23;20022;-70
2023/09/16 01:17:48;;;;;;;5.10;4.60;;;12.20;99.90;;;;;;6085200;23;20022;-70
2023/09/16 01:20:15;;;;;;;7.25;4.38;;;12.20;99.90;;;;;;6110165;23;20025;-70
2023/09/16 01:22:45;;;;;;;5.38;4.55;;;12.20;99.90;;;;;;6086691;23;20042;-71
2023/09/16 01:25:14;;;;;;;5.88;5.38;;;12.30;99.90;;;;;;6085792;23;20093;-70
2023/09/16 01:27:41;;;;;;;9.52;5.60;;;12.30;99.90;;;;;;6084403;23;20018;-70
2023/09/16 01:30:08;;;;;;;5.68;5.18;;;12.30;99.90;;;;;;6109817;23;20458;-71
2023/09/16 01:32:41;;;;;;;7.13;4.72;;;12.30;99.90;;;;;;6089629;23;20022;-72
2023/09/16 01:35:08;;;;;;;7.25;4.68;;;12.40;99.90;;;;;;6116590;23;20515;-71
2023/09/16 01:37:35;;;;;;;5.00;3.47;;;12.30;99.90;;;;;;6110790;23;20034;-71
2023/09/16 01:40:10;;;;;;;3.92;3.20;;;12.30;99.90;;;;;;6084936;23;20097;-70
2023/09/16 01:42:36;;;;;;;4.00;3.70;;;12.30;99.90;;;;;;6111101;23;20315;-70
2023/09/16 01:45:02;;;;;;;4.90;3.83;;;12.30;99.90;;;;;;6087042;23;20018;-71
2023/09/16 01:47:28;;;;;;;3.53;3.20;;;12.20;99.90;;;;;;6085701;23;20014;-70
2023/09/16 01:49:53;;;;;;;4.00;3.40;;;12.20;99.90;;;;;;6110015;23;20599;-71
2023/09/16 01:52:19;;;;;;;3.22;2.92;;;12.20;99.90;;;;;;6085340;23;20341;-71
2023/09/16 01:54:45;;;;;;;3.90;2.50;;;12.10;99.90;;;;;;6113015;23;20069;-70
2023/09/16 01:57:10;;;;;;;4.78;2.97;;;12.10;99.90;;;;;;6085337;23;20029;-71
2023/09/16 01:59:36;;;;;;;3.78;2.70;;;12.10;99.90;;;;;;6084510;23;20018;-70
2023/09/16 02:02:02;;;;;;;4.70;4.07;;;12.00;99.90;;;;;;6112509;23;20021;-70
2023/09/16 02:04:27;;;;;;;4.30;2.55;;;12.10;99.90;;;;;;6060142;23;20014;-70
2023/09/16 02:06:53;;;;;;;2.60;2.00;;;12.10;99.90;;;;;;6110874;23;20352;-71
2023/09/16 02:09:18;;;;;;;2.63;2.20;;;12.00;99.90;;;;;;6110419;23;20014;-71
2023/09/16 02:11:44;;;;;;;4.18;2.70;;;12.00;99.90;;;;;;6086479;23;20097;-70
2023/09/16 02:14:12;;;;;;;7.32;2.70;;;11.90;99.90;;;;;;6085590;23;20026;-70
2023/09/16 02:16:38;;;;;;;3.60;2.25;;;11.90;99.90;;;;;;6084540;23;20075;-71
2023/09/16 02:19:04;;;;;;;4.10;2.17;;;11.90;99.90;;;;;;6109868;23;20029;-71
2023/09/16 02:21:30;;;;;;;3.20;2.90;;;11.80;99.90;;;;;;6112086;23;20697;-71
2023/09/16 02:23:56;;;;;;;6.05;3.13;;;11.80;99.90;;;;;;6085752;23;20060;-70
2023/09/16 02:26:21;;;;;;;3.90;2.45;;;11.80;99.90;;;;;;6111114;23;20072;-70
2023/09/16 02:28:47;;;;;;;2.90;2.60;;;11.80;99.90;;;;;;6084934;23;20049;-70
2023/09/16 02:31:12;;;;;;;3.88;2.97;;;11.70;99.90;;;;;;6110868;23;20057;-70
2023/09/16 02:33:38;;;;;;;4.88;4.07;;;11.80;99.90;;;;;;6110997;23;20018;-70
2023/09/16 02:36:04;;;;;;;7.40;5.18;;;11.70;99.90;;;;;;6111874;23;20018;-72
2023/09/16 02:38:30;;;;;;;8.38;4.30;;;11.70;99.90;;;;;;6088235;23;20014;-70
2023/09/16 02:40:56;;;;;;;6.03;3.30;;;11.80;99.90;;;;;;6087083;23;20045;-70
2023/09/16 02:43:21;;;;;;;4.05;3.67;;;11.80;99.90;;;;;;6089082;23;20017;-70
2023/09/16 02:45:47;;;;;;;5.88;3.78;;;11.80;99.90;;;;;;6116565;23;20163;-70
2023/09/16 02:48:17;;;;;;;3.70;3.30;;;11.80;99.90;;;;;;6091012;23;20018;-70
2023/09/16 02:50:46;;;;;;;5.07;4.10;;;12.20;99.90;;;;;;6117517;23;20014;-70
2023/09/16 02:53:12;;;;;;;5.88;4.18;;;11.70;99.90;;;;;;6091535;23;20013;-71
2023/09/16 02:55:37;;;;;;;3.85;3.47;;;11.70;99.90;;;;;;6091425;23;20018;-70
2023/09/16 02:58:03;;;;;;;4.40;4.05;;;11.80;99.90;;;;;;6117426;23;20022;-71
2023/09/16 03:00:29;;;;;;;5.30;2.60;;;11.80;99.90;;;;;;6090658;23;20492;-71
2023/09/16 03:02:55;;;;;;;5.88;3.63;;;11.70;99.90;;;;;;6091260;23;20014;-71
2023/09/16 03:05:21;;;;;;;3.58;3.28;;;11.80;99.90;;;;;;6090973;23;20519;-71
2023/09/16 03:07:47;;;;;;;3.67;3.35;;;11.80;99.90;;;;;;6117549;23;20132;-71
2023/09/16 03:10:12;;;;;;;3.95;3.55;;;11.80;99.90;;;;;;6090928;23;20675;-70
2023/09/16 03:12:38;;;;;;;3.67;3.38;;;11.80;99.90;;;;;;6117235;23;20018;-70
2023/09/16 03:15:04;;;;;;;3.78;3.47;;;11.80;99.90;;;;;;6116946;23;20024;-71
2023/09/16 03:17:29;;;;;;;5.75;3.67;;;11.80;99.90;;;;;;6090777;23;20014;-70
2023/09/16 03:19:55;;;;;;;5.05;4.43;;;11.80;99.90;;;;;;6090556;23;20638;-71
2023/09/16 03:22:21;;;;;;;5.80;4.50;;;11.80;99.90;;;;;;6090741;23;20014;-70
2023/09/16 03:24:47;;;;;;;6.70;5.03;;;11.70;99.90;;;;;;6117095;23;20064;-70
2023/09/16 03:27:13;;;;;;;7.82;7.03;;;11.70;99.90;;;;;;6116750;23;20105;-71
2023/09/16 03:29:39;;;;;;;6.90;5.97;;;11.70;99.90;;;;;;6117229;23;20463;-71
2023/09/16 03:32:05;;;;;;;5.80;5.18;;;11.70;99.90;;;;;;6090041;23;20021;-71
2023/09/16 03:34:31;;;;;;;5.13;4.35;;;11.70;99.90;;;;;;6116997;23;20032;-71
2023/09/16 03:36:56;;;;;;;7.60;7.00;;;11.60;99.90;;;;;;6091457;23;20018;-71
2023/09/16 03:39:22;;;;;;;7.05;6.45;;;11.70;99.90;;;;;;6117519;23;20014;-71
2023/09/16 03:41:48;;;;;;;6.60;6.00;;;11.70;99.90;;;;;;6113712;23;20071;-71
2023/09/16 03:44:15;;;;;;;8.38;7.60;;;11.60;99.90;;;;;;6113511;23;20014;-71
2023/09/16 03:46:40;;;;;;;7.15;6.20;;;11.70;99.90;;;;;;6111900;23;20014;-71
2023/09/16 03:49:06;;;;;;;5.40;4.70;;;11.60;99.90;;;;;;6111552;23;20463;-71
2023/09/16 03:51:37;;;;;;;7.18;4.53;;;11.60;99.90;;;;;;6113647;23;20444;-71
2023/09/16 03:54:04;;;;;;;4.32;3.92;;;11.60;99.90;;;;;;6088427;23;20392;-71
2023/09/16 03:56:30;;;;;;;4.70;3.58;;;11.60;99.90;;;;;;6086556;23;20021;-70
2023/09/16 03:58:55;;;;;;;3.80;3.05;;;11.60;99.90;;;;;;6111792;23;20010;-71
2023/09/16 04:01:21;;;;;;;5.95;3.03;;;11.60;99.90;;;;;;6087214;23;20069;-71
2023/09/16 04:03:47;;;;;;;4.88;3.30;;;11.60;99.90;;;;;;6087603;23;20013;-71
2023/09/16 04:06:12;;;;;;;2.70;2.45;;;11.60;99.90;;;;;;6111987;23;20457;-71
2023/09/16 04:08:39;;;;;;;3.75;2.83;;;11.60;99.90;;;;;;6086347;23;20107;-71
2023/09/16 04:11:05;;;;;;;4.35;3.95;;;11.60;99.90;;;;;;6113563;23;20014;-71
2023/09/16 04:13:30;;;;;;;3.45;3.15;;;11.50;99.90;;;;;;6112220;23;20018;-71
2023/09/16 04:15:56;;;;;;;3.35;2.63;;;11.50;99.90;;;;;;6086838;23;20029;-70
2023/09/16 04:18:22;;;;;;;2.35;2.15;;;11.50;99.90;;;;;;6088932;23;20025;-71
2023/09/16 04:20:48;;;;;;;1.95;1.85;;;11.50;99.90;;;;;;6091083;23;20333;-71
2023/09/16 04:23:14;;;;;;;2.65;2.10;;;11.50;99.90;;;;;;6116826;23;20458;-71
2023/09/16 04:25:40;;;;;;;2.67;2.47;;;11.40;99.90;;;;;;6116313;23;20054;-71
2023/09/16 04:28:05;;;;;;;3.65;2.50;;;11.40;99.90;;;;;;6091846;23;20025;-70
2023/09/16 04:30:38;;;;;;;2.00;1.80;;;11.40;99.90;;;;;;6116851;23;20519;-71
2023/09/16 04:33:04;;;;;;;2.63;1.80;;;11.40;99.90;;;;;;6066745;23;20071;-71
2023/09/16 04:35:31;;;;;;;2.10;1.90;;;11.30;99.90;;;;;;6116468;23;20570;-71
2023/09/16 04:37:56;;;;;;;4.45;2.70;;;11.20;99.90;;;;;;6116116;23;20021;-70
2023/09/16 04:40:22;;;;;;;2.33;2.03;;;11.30;99.90;;;;;;6090748;23;20018;-71
2023/09/16 04:42:48;;;;;;;3.30;3.00;;;11.30;99.90;;;;;;6116112;23;20089;-70
2023/09/16 04:45:15;;;;;;;3.83;3.47;;;11.30;99.90;;;;;;6114081;23;20049;-71
2023/09/16 04:47:41;;;;;;;5.15;3.83;;;11.30;99.90;;;;;;6117449;23;20013;-71
2023/09/16 04:50:07;;;;;;;4.50;3.08;;;11.30;99.90;;;;;;6117534;23;20113;-71
2023/09/16 04:52:33;;;;;;;3.13;2.83;;;11.20;99.90;;;;;;6089940;23;20022;-71
2023/09/16 04:54:58;;;;;;;2.80;2.17;;;11.20;99.90;;;;;;6089544;23;20014;-71
2023/09/16 04:57:25;;;;;;;2.33;1.67;;;11.20;99.90;;;;;;6090065;23;20006;-70
2023/09/16 05:00:09;;;;;;;3.60;1.85;;;11.10;99.90;;;;;;6116448;23;20116;-71
2023/09/16 05:02:35;;;;;;;2.45;2.03;;;11.00;99.90;;;;;;6117361;23;20021;-71
2023/09/16 05:05:01;;;;;;;7.40;2.20;;;11.00;99.90;;;;;;6089902;23;20023;-71
2023/09/16 05:07:28;;;;;;;5.35;3.30;;;11.10;99.90;;;;;;6116064;23;20006;-71
2023/09/16 05:09:56;;;;;;;3.67;3.38;;;11.00;99.90;;;;;;6090517;23;20022;-71
2023/09/16 05:12:22;;;;;;;5.72;3.88;;;11.00;99.90;;;;;;6065837;23;20040;-71
2023/09/16 05:14:49;;;;;;;5.95;3.30;;;11.00;99.90;;;;;;6114524;23;20010;-71
2023/09/16 05:17:15;;;;;;;9.40;2.58;;;11.10;99.90;;;;;;6089233;23;20021;-71
2023/09/16 05:19:40;;;;;;;2.30;2.08;;;11.10;99.90;;;;;;6116023;23;20023;-71
2023/09/16 05:22:06;;;;;;;1.73;1.63;;;11.00;99.90;;;;;;6089760;23;20022;-71
2023/09/16 05:24:31;;;;;;;3.88;2.13;;;11.00;99.90;;;;;;6115920;23;20013;-71
2023/09/16 05:26:57;;;;;;;2.00;1.90;;;11.10;99.90;;;;;;6115050;23;20068;-71
2023/09/16 05:29:23;;;;;;;2.15;2.05;;;11.10;99.90;;;;;;6090496;23;20026;-71
2023/09/16 05:31:49;;;;;;;2.08;1.98;;;11.10;99.90;;;;;;6114564;23;20049;-71
2023/09/16 05:34:15;;;;;;;2.08;1.90;;;11.10;99.90;;;;;;6090141;23;20413;-71
2023/09/16 05:36:41;;;;;;;2.10;1.90;;;11.10;99.90;;;;;;6115716;23;20092;-71
2023/09/16 05:39:06;;;;;;;1.42;1.23;;;11.20;99.90;;;;;;6115436;23;20068;-70
2023/09/16 05:41:33;;;;;;;2.13;1.50;;;11.20;99.90;;;;;;6089490;23;20014;-71
2023/09/16 05:43:58;;;;;;;1.90;1.80;;;11.30;99.90;;;;;;6090200;23;20017;-71
2023/09/16 05:46:24;;;;;;;2.08;1.90;;;11.20;99.90;;;;;;6114808;23;20440;-71
2023/09/16 05:48:49;;;;;;;1.75;1.65;;;11.40;99.90;;;;;;6087587;23;20445;-71
2023/09/16 05:51:15;;;;;;;1.80;1.70;;;11.80;99.90;;;;;;6089976;23;20088;-71
2023/09/16 05:53:42;;;;;;;2.53;1.90;;;12.20;99.90;;;;;;6116282;23;20511;-71
2023/09/16 05:56:08;;;;;;;2.42;1.38;;;12.50;99.90;;;;;;6065458;23;20022;-71
2023/09/16 05:58:35;;;;;;;3.08;1.17;;;13.00;99.90;;;;;;6089034;23;20018;-71
2023/09/16 06:01:00;;;;;;;1.52;1.42;;;13.60;99.90;;;;;;6114051;23;20055;-71
2023/09/16 06:03:27;;;;;;;2.28;1.45;;;14.30;99.90;;;;;;6114947;23;20379;-71
2023/09/16 06:05:59;;;;;;;1.30;1.20;;;15.10;99.90;;;;;;6114976;23;20798;-71
2023/09/16 06:08:25;;;;;;;1.58;1.40;;;16.10;99.90;;;;;;6089727;23;20014;-71
2023/09/16 06:10:51;;;;;;;2.08;1.90;;;17.00;99.90;;;;;;6089891;23;20029;-71
2023/09/16 06:13:17;;;;;;;5.90;2.45;;;17.60;99.90;;;;;;6089847;23;20021;-71
2023/09/16 06:15:45;;;;;;;10.60;2.63;;;18.30;99.90;;;;;;6115999;23;20022;-71
2023/09/16 06:18:11;;;;;;;36.95;4.60;;;19.20;99.90;;;;;;6066746;23;20017;-71
2023/09/16 06:20:38;;;;;;;23.38;4.32;;;20.00;99.90;;;;;;6116041;23;20029;-71
2023/09/16 06:23:04;;;;;;;15.57;3.30;;;20.30;99.90;;;;;;6115926;23;20117;-71
2023/09/16 06:25:30;;;;;;;6.78;2.47;;;20.80;99.90;;;;;;6089910;23;20053;-71
2023/09/16 06:27:59;;;;;;;3.83;2.53;;;21.80;99.90;;;;;;6117146;23;20340;-71
2023/09/16 06:30:25;;;;;;;4.93;3.78;;;22.50;99.90;;;;;;6090955;23;20022;-71
2023/09/16 06:32:55;;;;;;;4.55;4.15;;;23.10;99.90;;;;;;6088892;23;20017;-71
2023/09/16 06:35:21;;;;;;;6.15;3.53;;;23.20;99.90;;;;;;6114259;23;20437;-71
2023/09/16 06:37:47;;;;;;;5.25;4.43;;;23.10;99.90;;;;;;6088610;23;20066;-71
2023/09/16 06:40:12;;;;;;;5.75;4.00;;;22.90;99.90;;;;;;6115060;23;20021;-71
2023/09/16 06:42:38;;;;;;;5.03;4.60;;;23.00;99.90;;;;;;6091244;23;20332;-71
2023/09/16 06:45:04;;;;;;;7.63;4.88;;;22.80;99.90;;;;;;6088314;23;20033;-71
2023/09/16 06:47:29;;;;;;;6.28;4.95;;;22.50;99.90;;;;;;6087170;23;20014;-71
2023/09/16 06:49:56;;;;;;;7.20;6.07;;;21.80;99.90;;;;;;6087421;23;20014;-71
2023/09/16 06:52:22;;;;;;;7.22;5.90;;;21.10;99.90;;;;;;6083711;23;20381;-71
2023/09/16 06:54:49;;;;;;;7.38;5.72;;;20.40;99.90;;;;;;6082284;23;20024;-71
2023/09/16 06:57:15;;;;;;;7.63;6.03;;;19.90;99.90;;;;;;6109725;23;20010;-71
2023/09/16 06:59:45;;;;;;;7.45;5.80;;;19.40;99.90;;;;;;6083448;23;20203;-71
2023/09/16 07:02:12;;;;;;;7.78;6.47;;;18.90;99.90;;;;;;6083337;23;20116;-71
2023/09/16 07:04:55;;;;;;;6.57;5.88;;;18.60;99.90;;;;;;6084665;23;20049;-70
2023/09/16 07:07:23;;;;;;;7.40;6.70;;;18.40;99.90;;;;;;6083535;23;20025;-71
2023/09/16 07:09:53;;;;;;;7.22;6.40;;;17.90;99.90;;;;;;6109794;23;20014;-71
2023/09/16 07:12:18;;;;;;;8.32;7.63;;;17.90;99.90;;;;;;6085171;23;20494;-71
2023/09/16 07:14:44;;;;;;;8.63;6.80;;;17.80;99.90;;;;;;6085837;23;20022;-71
2023/09/16 07:17:09;;;;;;;7.85;7.15;;;17.70;99.90;;;;;;6085057;23;20018;-71
2023/09/16 07:19:35;;;;;;;6.97;6.38;;;17.50;99.90;;;;;;6084515;23;20079;-71
2023/09/16 07:22:01;;;;;;;8.07;7.38;;;17.50;99.90;;;;;;6110510;23;20092;-70
2023/09/16 07:24:27;;;;;;;8.25;7.55;;;17.50;99.90;;;;;;6113191;23;20021;-70
2023/09/16 07:26:52;;;;;;;9.63;6.95;;;17.50;99.90;;;;;;6112151;23;20486;-70
2023/09/16 07:29:20;;;;;;;8.77;7.97;;;17.50;99.90;;;;;;6085691;23;20100;-70
2023/09/16 07:31:46;;;;;;;9.30;7.47;;;17.40;99.90;;;;;;6110302;23;20752;-70
2023/09/16 07:34:11;;;;;;;7.93;7.13;;;17.50;99.90;;;;;;6113826;23;20048;-70
2023/09/16 07:36:37;;;;;;;9.70;8.80;;;17.50;99.90;;;;;;6086451;23;20057;-70
2023/09/16 07:39:03;;;;;;;7.95;7.25;;;17.40;99.90;;;;;;6084718;23;20316;-70
2023/09/16 07:41:28;;;;;;;8.30;7.60;;;17.30;99.90;;;;;;6084823;23;20018;-70
2023/09/16 07:43:55;;;;;;;9.10;8.20;;;17.40;99.90;;;;;;6087054;23;20029;-70
2023/09/16 07:46:21;;;;;;;8.18;7.47;;;17.40;99.90;;;;;;6110901;23;20457;-69
2023/09/16 07:48:46;;;;;;;9.65;8.13;;;17.40;99.90;;;;;;6109397;23;20064;-69
2023/09/16 07:51:12;;;;;;;9.43;8.52;;;17.40;99.90;;;;;;6111012;23;20018;-68
2023/09/16 07:53:38;;;;;;;10.50;8.18;;;17.40;99.90;;;;;;6084312;23;20024;-68
2023/09/16 07:56:04;;;;;;;8.18;7.47;;;17.50;99.90;;;;;;6085192;23;20030;-68
2023/09/16 07:58:30;;;;;;;9.27;8.48;;;17.70;99.90;;;;;;6109940;23;20022;-69
2023/09/16 08:00:55;;;;;;;8.48;7.50;;;17.70;99.90;;;;;;6111083;23;20018;-68
2023/09/16 08:03:22;;;;;;;8.63;7.55;;;17.80;99.90;;;;;;6086079;23;20014;-68
2023/09/16 08:05:48;;;;;;;8.90;7.60;;;17.90;99.90;;;;;;6088430;23;20022;-68
2023/09/16 08:08:14;;;;;;;8.35;7.57;;;18.00;99.90;;;;;;6090006;23;20054;-69
2023/09/16 08:10:44;;;;;;;8.30;7.60;;;18.20;99.90;;;;;;6090890;23;20022;-68
2023/09/16 08:13:10;;;;;;;8.77;7.50;;;18.20;99.90;;;;;;6088903;23;20014;-70
2023/09/16 08:15:35;;;;;;;9.05;8.20;;;18.30;99.90;;;;;;6084424;23;20085;-70
2023/09/16 08:18:01;;;;;;;8.82;7.88;;;18.40;99.90;;;;;;6085171;23;20063;-70
2023/09/16 08:20:27;;;;;;;8.05;7.25;;;18.50;99.90;;;;;;6112778;23;20496;-70
2023/09/16 08:22:52;;;;;;;7.38;6.53;;;18.60;99.90;;;;;;6089192;23;20058;-70
2023/09/16 08:25:18;;;;;;;7.90;7.00;;;18.70;99.90;;;;;;6113505;23;20153;-70
2023/09/16 08:27:44;;;;;;;7.35;6.70;;;18.90;99.90;;;;;;6111371;23;20075;-69
2023/09/16 08:30:10;;;;;;;7.93;6.53;;;19.10;99.90;;;;;;6086521;23;20010;-69
2023/09/16 08:32:38;;;;;;;7.45;6.75;;;19.30;99.90;;;;;;6086177;23;20041;-69
2023/09/16 08:35:05;;;;;;;7.15;6.50;;;19.50;99.90;;;;;;6088701;23;20018;-69
2023/09/16 08:37:31;;;;;;;6.80;6.20;;;19.60;99.90;;;;;;6116966;23;20010;-69
2023/09/16 08:39:56;;;;;;;6.97;6.13;;;19.90;99.90;;;;;;6112674;23;20566;-69
2023/09/16 08:42:27;;;;;;;8.20;6.00;;;20.10;99.90;;;;;;6115387;23;20010;-69
2023/09/16 08:44:53;;;;;;;9.32;5.95;;;20.40;99.90;;;;;;6087732;23;20022;-69
2023/09/16 08:47:33;;;;;;;5.40;4.82;;;20.60;99.90;;;;;;6089214;23;20018;-69
2023/09/16 08:50:08;;;;;;;5.30;4.88;;;20.90;99.90;;;;;;6089566;23;20024;-70
2023/09/16 08:52:48;;;;;;;5.35;4.85;;;21.20;99.90;;;;;;6090673;23;20435;-69
2023/09/16 08:55:15;;;;;;;5.95;5.35;;;21.50;99.90;;;;;;6090002;23;20101;-69
2023/09/16 08:58:14;;;;;;;5.47;4.97;;;21.70;99.90;;;;;;6088548;23;20014;-69
2023/09/16 09:00:40;;;;;;;5.88;4.82;;;21.90;99.90;;;;;;6119970;23;20014;-71
2023/09/16 09:03:06;;;;;;;4.68;4.28;;;22.10;99.90;;;;;;6110042;23;20021;-70
2023/09/16 09:05:37;;;;;;;4.53;4.13;;;22.40;99.90;;;;;;6088411;23;20022;-69
2023/09/16 09:08:08;;;;;;;4.63;4.10;;;22.70;99.90;;;;;;6089757;23;20021;-69
2023/09/16 09:10:36;;;;;;;6.13;4.43;;;22.80;99.90;;;;;;6090007;23;20542;-69
2023/09/16 09:13:03;;;;;;;7.43;4.90;;;23.10;99.90;;;;;;6114244;23;20024;-69
2023/09/16 09:15:30;;;;;;;4.93;4.43;;;23.10;99.90;;;;;;6064667;23;20029;-69
2023/09/16 09:17:58;;;;;;;4.28;3.88;;;23.30;99.90;;;;;;6113070;23;20017;-70
2023/09/16 09:20:26;;;;;;;5.65;3.53;;;23.40;99.90;;;;;;6088687;23;20029;-69
2023/09/16 09:22:53;;;;;;;4.78;3.75;;;23.50;99.90;;;;;;6088930;23;20419;-70
2023/09/16 09:25:26;;;;;;;4.88;4.05;;;23.60;99.90;;;;;;6087495;23;20022;-69
2023/09/16 09:27:54;;;;;;;4.70;4.07;;;23.60;99.90;;;;;;6090296;23;20474;-70
2023/09/16 09:30:26;;;;;;;3.90;3.60;;;23.60;99.90;;;;;;6087270;23;20018;-70
2023/09/16 09:32:56;;;;;;;5.82;4.32;;;23.60;99.90;;;;;;6088283;23;20075;-69
2023/09/16 09:35:23;;;;;;;5.78;3.83;;;23.60;99.90;;;;;;6091395;23;20026;-70
2023/09/16 09:37:50;;;;;;;4.30;3.90;;;23.40;99.90;;;;;;6091456;23;20352;-70
2023/09/16 09:40:17;;;;;;;5.85;3.30;;;23.40;99.90;;;;;;6090487;23;20022;-70
2023/09/16 09:42:51;;;;;;;4.82;4.43;;;23.50;99.90;;;;;;6067322;23;20021;-69
2023/09/16 09:45:19;;;;;;;4.82;4.20;;;23.60;99.90;;;;;;6092415;23;20758;-69
2023/09/16 09:47:47;;;;;;;5.50;4.63;;;23.70;99.90;;;;;;6116292;23;20063;-70
2023/09/16 09:50:16;;;;;;;4.40;3.58;;;23.70;99.90;;;;;;6117478;23;20092;-70
2023/09/16 09:52:50;;;;;;;3.80;3.40;;;23.80;99.90;;;;;;6091769;23;20021;-69
2023/09/16 09:55:17;;;;;;;7.22;4.53;;;24.00;99.90;;;;;;6092318;23;20056;-70
2023/09/16 09:57:45;;;;;;;4.70;4.00;;;23.90;99.90;;;;;;6118382;23;20064;-70
2023/09/16 10:00:15;;;;;;;6.45;4.25;;;24.00;99.90;;;;;;6091314;23;20018;-70
2023/09/16 10:02:41;;;;;;;4.43;3.78;;;24.00;99.90;;;;;;6090233;23;20018;-70
2023/09/16 10:05:07;;;;;;;3.42;2.85;;;24.10;99.90;;;;;;6086663;23;20021;-69
2023/09/16 10:07:32;;;;;;;5.53;2.88;;;24.10;99.90;;;;;;6086311;23;20018;-70
2023/09/16 10:09:58;;;;;;;5.60;3.28;;;24.40;99.90;;;;;;6087174;23;20340;-70
2023/09/16 10:12:24;;;;;;;6.05;3.38;;;24.30;99.90;;;;;;6084622;23;20022;-70
2023/09/16 10:14:53;;;;;;;4.65;3.60;;;24.10;99.90;;;;;;6085359;23;20022;-69
2023/09/16 10:17:22;;;;;;;3.28;2.83;;;23.90;99.90;;;;;;6086344;23;20021;-70
2023/09/16 10:19:47;;;;;;;3.83;2.67;;;24.00;99.90;;;;;;6114380;23;20014;-69
2023/09/16 10:22:13;;;;;;;3.13;2.67;;;24.10;99.90;;;;;;6111720;23;20025;-70
2023/09/16 10:24:43;;;;;;;2.95;2.58;;;24.20;99.90;;;;;;6084576;23;20452;-69
2023/09/16 10:27:17;;;;;;;2.60;2.15;;;24.00;99.90;;;;;;6085841;23;20396;-70
2023/09/16 10:29:43;;;;;;;2.77;2.40;;;24.10;99.90;;;;;;6087913;23;20018;-69
2023/09/16 10:32:10;;;;;;;2.50;2.30;;;24.30;99.90;;;;;;6112478;23;20056;-70
2023/09/16 10:34:38;;;;;;;3.25;2.17;;;24.40;99.90;;;;;;6112535;23;20378;-70
2023/09/16 10:37:04;;;;;;;2.63;2.20;;;24.50;99.90;;;;;;6086704;23;20022;-70
2023/09/16 10:39:31;;;;;;;4.35;2.20;;;24.50;99.90;;;;;;6112803;23;20325;-69
2023/09/16 10:41:57;;;;;;;3.28;2.05;;;24.50;99.90;;;;;;6112437;23;20101;-70
2023/09/16 10:44:24;;;;;;;2.72;2.53;;;24.70;99.90;;;;;;6087011;23;20018;-70
2023/09/16 10:46:50;;;;;;;2.75;2.38;;;24.80;99.90;;;;;;6111779;23;20400;-69
2023/09/16 10:49:16;;;;;;;3.72;2.17;;;24.90;99.90;;;;;;6088273;23;20025;-69
2023/09/16 10:51:42;;;;;;;2.15;1.67;;;24.90;99.90;;;;;;6086438;23;20010;-69
2023/09/16 10:54:24;;;;;;;3.20;2.03;;;24.90;99.90;;;;;;6086260;23;20022;-69
2023/09/16 10:56:55;;;;;;;6.70;2.38;;;25.00;99.90;;;;;;6113230;23;20420;-69
2023/09/16 10:59:25;;;;;;;3.80;2.47;;;25.00;99.90;;;;;;6088348;23;20045;-69
2023/09/16 11:02:03;;;;;;;2.65;2.25;;;25.10;99.90;;;;;;6087037;23;20018;-69
2023/09/16 11:04:30;;;;;;;1.98;1.77;;;25.20;99.90;;;;;;6087159;23;20025;-69
2023/09/16 11:06:57;;;;;;;3.63;1.90;;;25.00;99.90;;;;;;6109629;23;20332;-69
2023/09/16 11:09:24;;;;;;;4.20;1.80;;;25.00;99.90;;;;;;6086087;23;20018;-69
2023/09/16 11:11:50;;;;;;;2.78;2.08;;;25.10;99.90;;;;;;6085967;23;20025;-69
2023/09/16 11:14:19;;;;;;;2.70;2.15;;;25.10;99.90;;;;;;6085870;23;20052;-69
2023/09/16 11:16:52;;;;;;;5.75;2.03;;;25.20;99.90;;;;;;6113456;23;20348;-69
2023/09/16 11:19:22;;;;;;;2.30;2.10;;;25.10;99.90;;;;;;6116361;23;20447;-69
2023/09/16 11:21:48;;;;;;;3.85;1.98;;;25.10;99.90;;;;;;6091281;23;20013;-69
2023/09/16 11:24:14;;;;;;;3.78;1.88;;;25.10;99.90;;;;;;6117193;23;20071;-69
2023/09/16 11:26:40;;;;;;;1.83;1.50;;;25.10;99.90;;;;;;6116609;23;20014;-69
2023/09/16 11:29:19;;;;;;;4.13;1.50;;;25.30;99.90;;;;;;6116774;23;20025;-69
2023/09/16 11:31:45;;;;;;;1.60;1.48;;;25.40;99.90;;;;;;6091272;23;20010;-69
2023/09/16 11:34:12;;;;;;;3.22;1.20;;;25.60;99.90;;;;;;6090755;23;20068;-69
2023/09/16 11:36:44;;;;;;;3.60;0.95;;;25.60;99.60;;;;;;6116868;23;20325;-69
2023/09/16 11:39:10;;;;;;;4.10;0.95;;;25.70;99.20;;;;;;6091353;23;20334;-69
2023/09/16 11:41:36;;;;;;;7.28;1.38;;;26.00;98.20;;;;;;6117082;23;20040;-69
2023/09/16 11:44:03;;;;;;;2.30;1.00;;;26.10;97.50;;;;;;6089966;23;20018;-69
2023/09/16 11:46:31;;;;;;;3.60;0.90;;;26.30;97.00;;;;;;6116379;23;20091;-69
2023/09/16 11:49:03;;;;;;;1.38;1.08;;;26.30;96.10;;;;;;6091438;23;20405;-69
2023/09/16 11:51:30;;;;;;;3.05;1.00;;;26.30;96.10;;;;;;6117511;23;20014;-69
2023/09/16 11:53:56;;;;;;;1.67;1.25;;;26.30;95.60;;;;;;6091930;23;20071;-69
2023/09/16 11:56:28;;;;;;;2.15;1.25;;;26.10;96.40;;;;;;6117365;23;20083;-69
2023/09/16 11:58:54;;;;;;;3.65;1.45;;;25.90;96.50;;;;;;6117448;23;20358;-69
2023/09/16 12:01:32;;;;;;;2.97;1.48;;;25.70;96.60;;;;;;6090414;23;20017;-69
2023/09/16 12:03:58;;;;;;;1.95;1.30;;;25.70;96.70;;;;;;6117026;23;20773;-69
2023/09/16 12:06:25;;;;;;;1.58;1.33;;;25.60;97.10;;;;;;6090972;23;20021;-69
2023/09/16 12:08:57;;;;;;;1.90;1.45;;;25.60;96.20;;;;;;6089824;23;20014;-69
2023/09/16 12:11:23;;;;;;;2.00;1.35;;;25.40;95.90;;;;;;6114329;23;20441;-69
2023/09/16 12:13:49;;;;;;;5.00;1.40;;;25.40;96.80;;;;;;6116735;23;20024;-69
2023/09/16 12:16:15;;;;;;;4.63;1.40;;;25.50;97.70;;;;;;6089955;23;20105;-69
2023/09/16 12:18:42;;;;;;;1.90;1.50;;;25.80;97.90;;;;;;6065691;23;20022;-69
2023/09/16 12:21:08;;;;;;;2.55;1.40;;;26.00;97.70;;;;;;6090598;23;20282;-69
2023/09/16 12:23:34;;;;;;;3.25;1.42;;;26.10;96.70;;;;;;6115945;23;20021;-69
2023/09/16 12:26:00;;;;;;;3.72;1.50;;;26.10;96.80;;;;;;6091391;23;20156;-69
2023/09/16 12:28:27;;;;;;;4.43;1.60;;;26.20;97.20;;;;;;6090638;23;20022;-69
2023/09/16 12:30:55;;;;;;;2.00;1.50;;;26.20;97.20;;;;;;6090491;23;20143;-69
2023/09/16 12:33:56;;;;;;;4.10;1.55;;;26.30;96.70;;;;;;6091558;23;20356;-69
2023/09/16 12:36:25;;;;;;;2.58;1.50;;;26.30;96.70;;;;;;6115921;23;20463;-69
2023/09/16 12:38:53;;;;;;;3.40;2.03;;;26.40;97.30;;;;;;6085393;23;20030;-69
2023/09/16 12:41:21;;;;;;;1.98;1.70;;;26.30;97.10;;;;;;6089177;23;20028;-69
2023/09/16 12:43:47;;;;;;;2.92;2.00;;;26.40;97.10;;;;;;6116382;23;20022;-69
2023/09/16 12:46:15;;;;;;;2.30;1.60;;;26.50;96.80;;;;;;6116700;23;20042;-69